Time;durP1;ratioP1;P1;durP2;ratioP2;P2;SDS_P1;SDS_P2;PMS_P1;PMS_P2;Temp;Humidity;BMP_temperature;BMP_pressure;BME280_temperature;BME280_humidity;BME280_pressure;Samples;Min_cycle;Max_cycle;Signal;HPM_P1;HPM_P2
2022/02/12 00:00:38;;;;;;;7.28;4.43;;;3.40;99.90;;;;;;5006313;28;20209;-78
2022/02/12 00:03:04;;;;;;;11.82;4.55;;;3.40;99.90;;;;;;5013560;28;20276;-79
2022/02/12 00:05:31;;;;;;;8.40;4.50;;;3.40;99.90;;;;;;5014884;28;20202;-78
2022/02/12 00:07:58;;;;;;;7.90;4.25;;;3.40;99.90;;;;;;5011420;28;21149;-79
2022/02/12 00:10:26;;;;;;;7.95;4.43;;;3.30;99.90;;;;;;5003326;28;20203;-79
2022/02/12 00:12:52;;;;;;;9.88;4.55;;;3.30;99.90;;;;;;5006011;28;20290;-78
2022/02/12 00:15:18;;;;;;;13.27;4.80;;;3.30;99.90;;;;;;5003330;28;20266;-78
2022/02/12 00:17:45;;;;;;;10.57;3.55;;;3.30;99.90;;;;;;4988662;28;20681;-78
2022/02/12 00:20:13;;;;;;;10.90;4.85;;;3.30;99.90;;;;;;5003038;28;20209;-78
2022/02/12 00:22:40;;;;;;;10.70;4.85;;;3.30;99.90;;;;;;5005710;28;20186;-79
2022/02/12 00:25:07;;;;;;;11.05;4.78;;;3.30;99.90;;;;;;5006751;28;20174;-79
2022/02/12 00:27:33;;;;;;;8.85;4.10;;;3.20;99.90;;;;;;5006705;28;20199;-78
2022/02/12 00:29:59;;;;;;;10.07;4.57;;;3.20;99.90;;;;;;5006493;28;20186;-79
2022/02/12 00:32:25;;;;;;;9.32;4.43;;;3.20;99.90;;;;;;5003565;28;20586;-79
2022/02/12 00:34:51;;;;;;;6.43;3.92;;;3.20;99.90;;;;;;4996392;28;20538;-79
2022/02/12 00:37:18;;;;;;;13.10;6.35;;;3.20;99.90;;;;;;5003256;28;20535;-79
2022/02/12 00:39:46;;;;;;;13.55;9.05;;;3.10;99.90;;;;;;5005447;28;20524;-79
2022/02/12 00:42:12;;;;;;;18.58;11.15;;;3.10;99.90;;;;;;5011627;28;20268;-79
2022/02/12 00:44:38;;;;;;;13.13;6.30;;;3.10;99.90;;;;;;5001931;28;20302;-79
2022/02/12 00:47:04;;;;;;;13.13;6.90;;;3.10;99.90;;;;;;5005467;28;20213;-79
2022/02/12 00:49:29;;;;;;;11.65;6.03;;;3.10;99.90;;;;;;5003194;28;20186;-79
2022/02/12 00:51:55;;;;;;;12.07;6.50;;;3.00;99.90;;;;;;5005422;28;20170;-80
2022/02/12 00:54:21;;;;;;;13.10;7.73;;;3.00;99.90;;;;;;5002708;28;20183;-79
2022/02/12 00:56:47;;;;;;;12.30;6.87;;;3.00;99.90;;;;;;5005831;28;20647;-79
2022/02/12 00:59:12;;;;;;;8.83;6.20;;;3.00;99.90;;;;;;5005937;28;20198;-79
2022/02/12 01:01:38;;;;;;;19.00;6.27;;;2.90;99.90;;;;;;5002702;28;20213;-79
2022/02/12 01:04:04;;;;;;;8.52;4.75;;;2.90;99.90;;;;;;5002433;28;20186;-79
2022/02/12 01:06:31;;;;;;;9.07;4.68;;;2.90;99.90;;;;;;5002217;28;20269;-79
2022/02/12 01:08:59;;;;;;;6.85;3.97;;;2.90;99.90;;;;;;5001245;28;20739;-79
2022/02/12 01:11:25;;;;;;;9.10;4.88;;;2.90;99.90;;;;;;5005352;28;20186;-78
2022/02/12 01:13:51;;;;;;;9.98;4.55;;;2.90;99.90;;;;;;5002129;28;20194;-79
2022/02/12 01:16:17;;;;;;;9.43;4.83;;;2.90;99.90;;;;;;4984435;28;20210;-79
2022/02/12 01:18:43;;;;;;;10.38;4.68;;;2.90;99.90;;;;;;5008513;28;20213;-79
2022/02/12 01:21:09;;;;;;;10.40;5.30;;;2.90;99.90;;;;;;5001565;28;20670;-79
2022/02/12 01:23:35;;;;;;;8.83;3.50;;;2.90;99.90;;;;;;5005223;28;20588;-79
2022/02/12 01:26:03;;;;;;;13.45;5.10;;;2.80;99.90;;;;;;5001774;28;20594;-79
2022/02/12 01:28:29;;;;;;;9.48;3.92;;;2.80;99.90;;;;;;5005519;28;20171;-79
2022/02/12 01:30:55;;;;;;;8.33;4.40;;;2.80;99.90;;;;;;5001396;28;20190;-79
2022/02/12 01:33:20;;;;;;;11.85;5.25;;;2.80;99.90;;;;;;5004929;28;20167;-80
2022/02/12 01:35:46;;;;;;;12.10;4.77;;;2.80;99.90;;;;;;5001812;28;20194;-79
2022/02/12 01:38:12;;;;;;;11.35;4.50;;;2.80;99.90;;;;;;5003548;28;20186;-79
2022/02/12 01:40:38;;;;;;;9.20;5.07;;;2.80;99.90;;;;;;5001534;28;20268;-79
2022/02/12 01:43:07;;;;;;;9.03;4.30;;;2.80;99.90;;;;;;5004396;28;20269;-79
2022/02/12 01:45:33;;;;;;;10.82;6.25;;;2.80;99.90;;;;;;5002060;28;20280;-79
2022/02/12 01:48:02;;;;;;;9.32;4.85;;;2.80;99.90;;;;;;5004657;28;20213;-79
2022/02/12 01:50:28;;;;;;;11.02;4.47;;;2.80;99.90;;;;;;5000861;28;20233;-79
2022/02/12 01:52:54;;;;;;;9.63;4.37;;;2.70;99.90;;;;;;5004773;28;20182;-79
2022/02/12 01:55:19;;;;;;;8.00;4.50;;;2.70;99.90;;;;;;5005214;28;20218;-79
2022/02/12 01:57:45;;;;;;;12.30;5.00;;;2.70;99.90;;;;;;5001392;28;20210;-79
2022/02/12 02:00:14;;;;;;;7.75;4.18;;;2.70;99.90;;;;;;4991844;28;20683;-79
2022/02/12 02:02:41;;;;;;;9.35;4.50;;;2.70;99.90;;;;;;5004880;28;20178;-79
2022/02/12 02:05:10;;;;;;;12.15;5.82;;;2.60;99.90;;;;;;5004714;28;20178;-79
2022/02/12 02:07:38;;;;;;;9.65;3.83;;;2.60;99.90;;;;;;5000939;28;20206;-79
2022/02/12 02:10:04;;;;;;;11.35;4.88;;;2.60;99.90;;;;;;5000574;28;20194;-79
2022/02/12 02:12:30;;;;;;;8.35;4.38;;;2.60;99.90;;;;;;5004384;28;20209;-79
2022/02/12 02:14:56;;;;;;;9.00;4.20;;;2.60;99.90;;;;;;5004843;28;20178;-78
2022/02/12 02:17:22;;;;;;;7.30;4.17;;;2.60;99.90;;;;;;4994790;28;20693;-79
2022/02/12 02:19:47;;;;;;;10.27;3.50;;;2.60;99.90;;;;;;4998895;28;20211;-79
2022/02/12 02:22:15;;;;;;;10.13;4.77;;;2.60;99.90;;;;;;5004490;28;20698;-79
2022/02/12 02:24:41;;;;;;;7.50;3.70;;;2.60;99.90;;;;;;5000744;28;20179;-79
2022/02/12 02:27:18;;;;;;;8.67;3.63;;;2.50;99.90;;;;;;5000345;28;20191;-79
2022/02/12 02:29:44;;;;;;;9.25;3.33;;;2.50;99.90;;;;;;5001384;28;20178;-79
2022/02/12 02:32:12;;;;;;;10.07;3.40;;;2.50;99.90;;;;;;5006566;28;20190;-78
2022/02/12 02:34:55;;;;;;;7.22;3.83;;;2.50;99.90;;;;;;5005002;28;20202;-79
2022/02/12 02:37:22;;;;;;;7.00;4.30;;;2.40;99.90;;;;;;5004033;28;20693;-79
2022/02/12 02:39:48;;;;;;;7.35;4.03;;;2.50;99.90;;;;;;5000192;28;20683;-79
2022/02/12 02:42:14;;;;;;;10.38;4.10;;;2.40;99.90;;;;;;4994597;28;20253;-78
2022/02/12 02:44:40;;;;;;;9.40;3.10;;;2.40;99.90;;;;;;5000408;28;20811;-79
2022/02/12 02:49:52;;;;;;;9.50;4.80;;;2.40;99.90;;;;;;4986209;28;20550;-79
2022/02/12 02:57:47;;;;;;;5.45;3.22;;;2.40;99.90;;;;;;5001394;28;20198;-79
2022/02/12 03:00:14;;;;;;;7.60;3.13;;;2.40;99.90;;;;;;5001296;28;20713;-79
2022/02/12 03:02:39;;;;;;;6.18;2.95;;;2.40;99.90;;;;;;5000886;28;20571;-79
2022/02/12 03:05:05;;;;;;;7.60;2.90;;;2.40;99.90;;;;;;5002715;28;20178;-79
2022/02/12 03:07:31;;;;;;;6.30;3.15;;;2.40;99.90;;;;;;4983898;28;20218;-79
2022/02/12 03:09:57;;;;;;;6.13;3.07;;;2.30;99.90;;;;;;4993019;28;20711;-79
2022/02/12 03:12:23;;;;;;;7.73;3.80;;;2.30;99.90;;;;;;5002544;28;20938;-79
2022/02/12 03:14:49;;;;;;;9.97;3.30;;;2.30;99.90;;;;;;4984073;28;20205;-79
2022/02/12 03:17:14;;;;;;;6.07;3.38;;;2.30;99.90;;;;;;5002061;28;20253;-79
2022/02/12 03:19:40;;;;;;;6.27;2.87;;;2.30;99.90;;;;;;4992584;28;20668;-79
2022/02/12 03:22:06;;;;;;;7.00;3.23;;;2.30;99.90;;;;;;5001704;28;20354;-79
2022/02/12 03:24:31;;;;;;;7.73;3.10;;;2.30;99.90;;;;;;5001894;28;20234;-79
2022/02/12 03:26:57;;;;;;;8.97;3.67;;;2.30;99.90;;;;;;5002033;28;20198;-79
2022/02/12 03:29:23;;;;;;;8.50;3.90;;;2.30;99.90;;;;;;5001650;28;20186;-79
2022/02/12 03:31:49;;;;;;;7.87;4.00;;;2.30;99.90;;;;;;5004510;28;20192;-79
2022/02/12 03:34:15;;;;;;;8.48;4.03;;;2.30;99.90;;;;;;5006318;28;20189;-79
2022/02/12 03:36:41;;;;;;;5.45;3.33;;;2.20;99.90;;;;;;5007801;28;20197;-78
2022/02/12 03:39:07;;;;;;;4.87;2.70;;;2.30;99.90;;;;;;4999715;28;20220;-79
2022/02/12 03:41:33;;;;;;;11.10;4.20;;;2.20;99.90;;;;;;5007519;28;20508;-79
2022/02/12 03:43:59;;;;;;;4.77;3.00;;;2.20;99.90;;;;;;5006168;28;20590;-79
2022/02/12 03:46:24;;;;;;;5.53;2.73;;;2.20;99.90;;;;;;5010545;28;20210;-79
2022/02/12 03:48:50;;;;;;;6.70;3.13;;;2.20;99.90;;;;;;5008422;28;20579;-79
2022/02/12 03:51:18;;;;;;;5.90;3.27;;;2.20;99.90;;;;;;5004475;28;20549;-79
2022/02/12 03:53:45;;;;;;;7.95;3.08;;;2.20;99.90;;;;;;5005357;28;20590;-78
2022/02/12 03:56:13;;;;;;;6.93;2.95;;;2.20;99.90;;;;;;5007557;28;20201;-78
2022/02/12 03:58:39;;;;;;;5.53;2.70;;;2.20;99.90;;;;;;5004864;28;20262;-79
2022/02/12 04:01:04;;;;;;;7.83;3.23;;;2.20;99.90;;;;;;5002913;28;20266;-79
2022/02/12 04:03:30;;;;;;;11.60;3.90;;;2.20;99.90;;;;;;5003379;28;20545;-79
2022/02/12 04:05:56;;;;;;;6.53;2.73;;;2.20;99.90;;;;;;5002657;28;20179;-78
2022/02/12 04:08:23;;;;;;;9.40;3.07;;;2.20;99.90;;;;;;5004129;28;20166;-77
2022/02/12 04:10:49;;;;;;;10.50;4.35;;;2.20;99.90;;;;;;5002718;28;20587;-78
2022/02/12 04:13:17;;;;;;;5.35;3.20;;;2.20;99.90;;;;;;5006437;28;20658;-78
2022/02/12 04:15:42;;;;;;;5.25;2.88;;;2.20;99.90;;;;;;5003130;28;20594;-77
2022/02/12 04:18:12;;;;;;;9.97;4.03;;;2.20;99.90;;;;;;5004082;28;20210;-79
2022/02/12 04:20:38;;;;;;;7.35;3.63;;;2.20;99.90;;;;;;5002747;28;20266;-78
2022/02/12 04:23:05;;;;;;;7.88;3.35;;;2.20;99.90;;;;;;5008052;28;20189;-78
2022/02/12 04:25:31;;;;;;;9.43;4.38;;;2.20;99.90;;;;;;5003933;28;20170;-78
2022/02/12 04:27:57;;;;;;;9.93;3.57;;;2.20;99.90;;;;;;5006924;28;20198;-79
2022/02/12 04:30:22;;;;;;;9.57;3.80;;;2.20;99.90;;;;;;5003559;28;20245;-78
2022/02/12 04:32:49;;;;;;;6.50;2.90;;;2.10;99.90;;;;;;4985354;28;20635;-78
2022/02/12 04:35:17;;;;;;;9.13;4.03;;;2.10;99.90;;;;;;5005801;28;20171;-78
2022/02/12 04:37:43;;;;;;;7.05;3.50;;;2.10;99.90;;;;;;5006545;28;20230;-78
2022/02/12 04:40:10;;;;;;;4.57;3.23;;;2.10;99.90;;;;;;4985786;28;20242;-78
2022/02/12 04:42:36;;;;;;;9.10;3.40;;;2.10;99.90;;;;;;5005319;28;21077;-78
2022/02/12 04:45:03;;;;;;;7.47;3.17;;;2.10;99.90;;;;;;4978397;28;20254;-79
2022/02/12 04:47:29;;;;;;;9.02;3.25;;;2.10;99.90;;;;;;5006574;28;20210;-79
2022/02/12 04:49:55;;;;;;;7.68;3.13;;;2.10;99.90;;;;;;5003996;28;20261;-78
2022/02/12 04:52:23;;;;;;;5.05;3.40;;;2.10;99.90;;;;;;5002495;28;20190;-78
2022/02/12 04:54:48;;;;;;;6.70;2.90;;;2.10;99.90;;;;;;5003658;28;20383;-79
2022/02/12 04:57:15;;;;;;;6.63;2.90;;;2.00;99.90;;;;;;5005154;28;20567;-79
2022/02/12 04:59:40;;;;;;;6.63;2.53;;;2.00;99.90;;;;;;5006074;28;20712;-78
2022/02/12 05:02:06;;;;;;;6.30;3.50;;;2.00;99.90;;;;;;5005253;28;20210;-79
2022/02/12 05:04:33;;;;;;;9.07;4.13;;;2.00;99.90;;;;;;4984867;28;20590;-79
2022/02/12 05:06:59;;;;;;;8.55;3.70;;;2.00;99.90;;;;;;5002823;28;20210;-79
2022/02/12 05:09:25;;;;;;;10.38;3.45;;;2.00;99.90;;;;;;4987869;28;20293;-79
2022/02/12 05:11:51;;;;;;;5.97;3.20;;;2.00;99.90;;;;;;4993491;28;20558;-79
2022/02/12 05:14:17;;;;;;;7.70;3.60;;;2.00;99.90;;;;;;5005590;28;20188;-79
2022/02/12 05:16:44;;;;;;;9.55;2.53;;;2.00;99.90;;;;;;4984865;28;20609;-79
2022/02/12 05:19:10;;;;;;;6.53;3.38;;;2.00;99.90;;;;;;5003941;28;20236;-80
2022/02/12 05:21:36;;;;;;;7.65;3.28;;;2.00;99.90;;;;;;5002037;28;20171;-79
2022/02/12 05:24:02;;;;;;;14.50;4.18;;;2.00;99.90;;;;;;5005462;28;20175;-79
2022/02/12 05:26:28;;;;;;;8.75;3.90;;;2.00;99.90;;;;;;5002251;28;20238;-78
2022/02/12 05:28:54;;;;;;;13.00;4.57;;;1.90;99.90;;;;;;5005545;28;20256;-79
2022/02/12 05:31:21;;;;;;;7.47;2.95;;;1.90;99.90;;;;;;5000123;28;20191;-78
2022/02/12 05:33:46;;;;;;;8.98;3.53;;;1.90;99.90;;;;;;5005673;28;20174;-78
2022/02/12 05:36:13;;;;;;;13.27;4.43;;;1.90;99.90;;;;;;5005692;28;20550;-79
2022/02/12 05:38:40;;;;;;;8.80;3.95;;;1.90;99.90;;;;;;5008448;28;20384;-78
2022/02/12 05:41:06;;;;;;;9.77;3.97;;;1.90;99.90;;;;;;5001440;28;20182;-78
2022/02/12 05:43:33;;;;;;;15.45;3.72;;;1.90;99.90;;;;;;5001712;28;20724;-79
2022/02/12 05:45:59;;;;;;;10.48;4.75;;;1.90;99.90;;;;;;5002294;28;20191;-79
2022/02/12 05:48:25;;;;;;;7.15;3.15;;;1.90;99.90;;;;;;4985559;28;20587;-78
2022/02/12 05:50:51;;;;;;;7.57;3.40;;;1.90;99.90;;;;;;4984036;28;20194;-79
2022/02/12 05:53:17;;;;;;;4.87;2.83;;;1.90;99.90;;;;;;4988550;28;20179;-79
2022/02/12 05:55:43;;;;;;;7.75;3.83;;;1.90;99.90;;;;;;5005591;28;20671;-78
2022/02/12 05:58:09;;;;;;;7.63;4.17;;;1.90;99.90;;;;;;4995677;28;20266;-79
2022/02/12 06:00:34;;;;;;;11.10;4.50;;;1.90;99.90;;;;;;4988750;28;21194;-79
2022/02/12 06:03:02;;;;;;;10.07;3.90;;;1.90;99.90;;;;;;5005750;28;20171;-79
2022/02/12 06:05:28;;;;;;;7.38;2.58;;;1.90;99.90;;;;;;5005619;28;20178;-79
2022/02/12 06:07:54;;;;;;;11.30;4.00;;;1.90;99.90;;;;;;5002565;28;20199;-79
2022/02/12 06:10:23;;;;;;;6.32;3.80;;;1.90;99.90;;;;;;5008730;28;20584;-78
2022/02/12 06:12:49;;;;;;;4.10;3.03;;;1.90;99.90;;;;;;5005084;28;20189;-78
2022/02/12 06:15:15;;;;;;;9.87;4.70;;;1.90;99.90;;;;;;5004321;28;20183;-77
2022/02/12 06:17:42;;;;;;;11.43;4.10;;;1.90;99.90;;;;;;5005969;28;20218;-78
2022/02/12 06:20:08;;;;;;;9.20;4.30;;;1.90;99.90;;;;;;5008373;28;20206;-78
2022/02/12 06:22:34;;;;;;;6.97;3.30;;;1.90;99.90;;;;;;4998224;28;20175;-78
2022/02/12 06:25:00;;;;;;;11.38;4.32;;;1.90;99.90;;;;;;4997768;28;20266;-79
2022/02/12 06:27:26;;;;;;;7.47;4.13;;;1.80;99.90;;;;;;5004374;28;20885;-78
2022/02/12 06:29:53;;;;;;;8.03;4.67;;;1.90;99.90;;;;;;5001387;28;20225;-79
2022/02/12 06:32:20;;;;;;;8.57;3.55;;;1.90;99.90;;;;;;5004370;28;20627;-78
2022/02/12 06:34:46;;;;;;;9.70;4.00;;;1.90;99.90;;;;;;5004292;28;20285;-79
2022/02/12 06:37:12;;;;;;;9.80;4.77;;;1.90;99.90;;;;;;5004306;28;20198;-78
2022/02/12 06:39:37;;;;;;;14.63;4.77;;;1.90;99.90;;;;;;4967287;28;20629;-78
2022/02/12 06:42:03;;;;;;;7.67;3.70;;;1.90;99.90;;;;;;5003200;28;20566;-78
2022/02/12 06:44:29;;;;;;;4.80;3.90;;;1.90;99.90;;;;;;4983821;28;20179;-77
2022/02/12 06:46:55;;;;;;;9.10;3.23;;;1.90;99.90;;;;;;5000469;28;20212;-78
2022/02/12 06:49:21;;;;;;;5.80;4.20;;;1.90;99.90;;;;;;5003102;28;20178;-79
2022/02/12 06:51:46;;;;;;;11.00;4.00;;;1.90;99.90;;;;;;5005362;28;20186;-78
2022/02/12 06:54:12;;;;;;;10.10;4.20;;;1.90;99.90;;;;;;5001711;28;20265;-78
2022/02/12 06:56:38;;;;;;;9.93;4.80;;;1.90;99.90;;;;;;5002519;28;20285;-77
2022/02/12 06:59:04;;;;;;;5.90;3.07;;;1.90;99.90;;;;;;4991980;28;20950;-78
2022/02/12 07:01:29;;;;;;;12.60;4.63;;;1.90;99.90;;;;;;4984623;28;20175;-78
2022/02/12 07:03:56;;;;;;;5.83;2.77;;;2.00;99.90;;;;;;4986504;28;20171;-78
2022/02/12 07:06:23;;;;;;;7.38;3.65;;;2.00;99.90;;;;;;4994336;28;20608;-78
2022/02/12 07:08:49;;;;;;;6.97;3.88;;;2.00;99.90;;;;;;5009118;28;20189;-77
2022/02/12 07:11:15;;;;;;;6.80;3.80;;;2.00;99.90;;;;;;5005869;28;20179;-77
2022/02/12 07:13:40;;;;;;;11.13;3.80;;;2.00;99.90;;;;;;5002800;28;20256;-76
2022/02/12 07:16:06;;;;;;;12.43;4.33;;;2.10;99.90;;;;;;5001645;28;20550;-77
2022/02/12 07:18:32;;;;;;;11.33;5.23;;;2.10;99.90;;;;;;5001495;28;20181;-77
2022/02/12 07:20:57;;;;;;;6.90;4.00;;;2.10;99.90;;;;;;4984195;28;20229;-77
2022/02/12 07:23:23;;;;;;;8.10;4.30;;;2.10;99.90;;;;;;4992414;28;20262;-78
2022/02/12 07:25:49;;;;;;;7.30;3.67;;;2.20;99.90;;;;;;5001265;28;20174;-78
2022/02/12 07:28:15;;;;;;;9.67;4.07;;;2.20;99.90;;;;;;4988874;28;20226;-77
2022/02/12 07:30:41;;;;;;;6.07;3.77;;;2.20;99.90;;;;;;5004614;28;20208;-78
2022/02/12 07:33:07;;;;;;;4.80;3.40;;;2.30;99.90;;;;;;4983240;28;20254;-77
2022/02/12 07:35:34;;;;;;;12.00;4.32;;;2.40;99.90;;;;;;5002798;28;20281;-78
2022/02/12 07:38:00;;;;;;;7.88;3.45;;;2.40;99.90;;;;;;5007452;28;20705;-78
2022/02/12 07:40:27;;;;;;;8.55;3.28;;;2.50;99.90;;;;;;5009812;28;20292;-78
2022/02/12 07:42:53;;;;;;;11.23;4.18;;;2.50;99.90;;;;;;5009571;28;20206;-78
2022/02/12 07:45:19;;;;;;;8.00;4.30;;;2.60;99.90;;;;;;5007874;28;20277;-79
2022/02/12 07:47:46;;;;;;;6.37;3.63;;;2.70;99.90;;;;;;5005093;28;20286;-78
2022/02/12 07:50:14;;;;;;;9.45;3.83;;;2.70;99.90;;;;;;5004427;28;21005;-78
2022/02/12 07:52:42;;;;;;;8.15;3.90;;;2.80;99.90;;;;;;5001894;28;20179;-78
2022/02/12 07:55:12;;;;;;;11.52;3.45;;;2.90;99.90;;;;;;5002149;28;20178;-78
2022/02/12 07:57:38;;;;;;;13.73;4.90;;;2.90;99.90;;;;;;5001731;28;20225;-78
2022/02/12 08:00:08;;;;;;;6.82;3.92;;;3.00;99.90;;;;;;5001382;28;20247;-79
2022/02/12 08:02:40;;;;;;;10.40;4.68;;;3.00;99.90;;;;;;5002789;28;20174;-79
2022/02/12 08:05:07;;;;;;;6.70;3.90;;;3.10;99.90;;;;;;5002615;28;20175;-78
2022/02/12 08:07:37;;;;;;;6.53;3.67;;;3.10;99.90;;;;;;5005761;28;20195;-78
2022/02/12 08:12:54;;;;;;;7.97;3.60;;;3.30;99.90;;;;;;4977568;28;20186;-79
2022/02/12 08:15:20;;;;;;;10.95;4.47;;;3.40;99.90;;;;;;4998175;28;20280;-78
2022/02/12 08:17:46;;;;;;;13.80;4.83;;;3.50;99.90;;;;;;4991026;28;20273;-80
2022/02/12 08:20:12;;;;;;;5.40;4.20;;;3.50;99.90;;;;;;5001203;28;20614;-81
2022/02/12 08:22:38;;;;;;;8.52;4.10;;;3.60;99.90;;;;;;5000968;28;20568;-79
2022/02/12 08:25:05;;;;;;;11.50;3.40;;;3.70;99.90;;;;;;5006918;28;20174;-79
2022/02/12 08:27:31;;;;;;;5.90;4.07;;;3.70;99.90;;;;;;4988327;28;20621;-79
2022/02/12 08:29:57;;;;;;;11.40;5.20;;;3.80;99.90;;;;;;5002159;28;20558;-80
2022/02/12 08:32:23;;;;;;;10.10;4.03;;;3.80;99.90;;;;;;5010382;28;20182;-79
2022/02/12 08:34:50;;;;;;;4.85;3.33;;;3.80;99.90;;;;;;5005725;28;20187;-79
2022/02/12 08:37:17;;;;;;;9.55;4.10;;;3.90;99.90;;;;;;5005009;28;20265;-80
2022/02/12 08:39:43;;;;;;;7.53;3.78;;;4.00;99.90;;;;;;5004213;28;20293;-79
2022/02/12 08:42:09;;;;;;;7.47;3.67;;;4.10;99.90;;;;;;5014299;28;20184;-79
2022/02/12 08:44:35;;;;;;;9.00;3.53;;;4.20;99.90;;;;;;5006844;28;20198;-79
2022/02/12 08:47:02;;;;;;;9.30;4.43;;;4.40;99.90;;;;;;4995803;28;20249;-78
2022/02/12 08:49:29;;;;;;;5.40;3.95;;;4.50;99.90;;;;;;5007345;28;20258;-78
2022/02/12 08:51:55;;;;;;;8.75;3.72;;;4.50;99.90;;;;;;5008031;28;20267;-78
2022/02/12 08:54:21;;;;;;;10.18;4.90;;;4.60;99.90;;;;;;5010133;28;20265;-80
2022/02/12 08:56:48;;;;;;;10.90;4.47;;;4.70;99.90;;;;;;5007738;28;20270;-79
2022/02/12 08:59:14;;;;;;;9.70;4.60;;;4.80;99.90;;;;;;5007692;28;20631;-78
2022/02/12 09:01:41;;;;;;;14.25;5.20;;;4.80;99.90;;;;;;5010253;28;20645;-79
2022/02/12 09:04:09;;;;;;;8.52;3.65;;;4.90;99.90;;;;;;5006759;28;20532;-79
2022/02/12 09:06:36;;;;;;;9.60;4.20;;;5.10;99.90;;;;;;4997955;28;20598;-80
2022/02/12 09:09:04;;;;;;;8.38;4.13;;;5.30;99.90;;;;;;5013936;28;20614;-79
2022/02/12 09:11:30;;;;;;;10.93;4.75;;;5.60;99.90;;;;;;4994775;28;20222;-79
2022/02/12 09:13:57;;;;;;;16.52;4.38;;;5.90;99.90;;;;;;5008348;28;20647;-79
2022/02/12 09:16:25;;;;;;;10.45;3.83;;;6.10;99.90;;;;;;5010401;28;20195;-79
2022/02/12 09:18:52;;;;;;;12.93;3.45;;;6.40;99.90;;;;;;4991514;28;20195;-79
2022/02/12 09:21:18;;;;;;;8.38;3.90;;;6.60;99.90;;;;;;5010023;28;20219;-79
2022/02/12 09:23:45;;;;;;;9.82;4.32;;;6.90;99.90;;;;;;4987640;28;20200;-81
2022/02/12 09:26:11;;;;;;;9.20;3.58;;;7.10;99.90;;;;;;5007062;28;20198;-79
2022/02/12 09:28:36;;;;;;;13.87;3.40;;;7.30;99.90;;;;;;5008113;28;20178;-79
2022/02/12 09:31:02;;;;;;;6.80;3.80;;;7.50;99.90;;;;;;5005241;28;21090;-79
2022/02/12 09:33:28;;;;;;;7.57;4.30;;;7.80;99.90;;;;;;4993897;28;20652;-80
2022/02/12 09:35:56;;;;;;;6.77;3.60;;;7.80;99.90;;;;;;5008861;28;20692;-79
2022/02/12 09:38:26;;;;;;;11.57;3.70;;;8.00;99.90;;;;;;5005866;28;20201;-79
2022/02/12 09:40:56;;;;;;;8.85;3.40;;;8.30;99.90;;;;;;5002211;28;20208;-79
2022/02/12 09:43:24;;;;;;;9.55;3.97;;;8.40;99.90;;;;;;4992979;28;20184;-78
2022/02/12 09:46:17;;;;;;;7.10;4.65;;;8.70;99.90;;;;;;5007442;28;20190;-79
2022/02/12 09:48:45;;;;;;;8.38;3.35;;;9.10;99.90;;;;;;5014034;28;20182;-79
2022/02/12 09:51:12;;;;;;;14.77;4.32;;;9.60;99.90;;;;;;5012868;28;20602;-79
2022/02/12 09:53:37;;;;;;;10.38;3.45;;;10.00;99.90;;;;;;5006045;28;20209;-80
2022/02/12 09:56:03;;;;;;;8.60;4.10;;;10.20;99.90;;;;;;5008566;28;20186;-80
2022/02/12 09:58:33;;;;;;;11.50;4.10;;;10.70;99.90;;;;;;5008279;28;20186;-79
2022/02/12 10:01:00;;;;;;;5.07;2.77;;;11.10;99.90;;;;;;4983825;28;20625;-80
2022/02/12 10:03:26;;;;;;;8.25;3.83;;;11.40;99.90;;;;;;5001585;28;20635;-80
2022/02/12 10:05:53;;;;;;;9.07;3.70;;;11.60;99.90;;;;;;4983659;28;20183;-80
2022/02/12 10:08:21;;;;;;;7.70;3.03;;;11.80;99.90;;;;;;5004913;28;20213;-79
2022/02/12 10:10:50;;;;;;;6.60;3.27;;;11.90;99.90;;;;;;5004479;28;20719;-79
2022/02/12 10:13:19;;;;;;;8.20;3.50;;;12.00;99.90;;;;;;5001420;28;20574;-80
2022/02/12 10:16:02;;;;;;;7.30;3.33;;;12.10;99.90;;;;;;5011437;28;20586;-79
2022/02/12 10:18:30;;;;;;;5.07;2.50;;;12.20;99.90;;;;;;5003509;28;20582;-79
2022/02/12 10:20:57;;;;;;;8.70;3.20;;;12.20;99.90;;;;;;4994560;28;21069;-79
2022/02/12 10:23:28;;;;;;;8.30;3.80;;;12.20;99.90;;;;;;5000999;28;20708;-79
2022/02/12 10:26:03;;;;;;;8.18;3.90;;;12.20;99.90;;;;;;5000322;28;20705;-79
2022/02/12 10:28:35;;;;;;;8.67;3.03;;;12.30;99.90;;;;;;5005739;28;20268;-78
2022/02/12 10:31:01;;;;;;;11.40;3.83;;;12.20;98.20;;;;;;5005356;28;20179;-78
2022/02/12 10:33:29;;;;;;;10.77;4.47;;;12.00;99.90;;;;;;5008397;28;20577;-78
2022/02/12 10:35:55;;;;;;;7.53;4.40;;;11.60;98.90;;;;;;5008889;28;20735;-79
2022/02/12 10:38:23;;;;;;;5.63;3.70;;;11.30;99.80;;;;;;5013408;28;20576;-79
2022/02/12 10:41:08;;;;;;;13.27;5.20;;;11.10;99.90;;;;;;5012452;28;20616;-79
2022/02/12 10:43:35;;;;;;;11.27;5.05;;;10.90;99.90;;;;;;5007371;28;20699;-79
2022/02/12 10:46:02;;;;;;;10.00;4.32;;;10.70;98.90;;;;;;4998008;28;20729;-79
2022/02/12 10:48:30;;;;;;;7.73;3.40;;;10.70;99.50;;;;;;5008141;28;20182;-79
2022/02/12 10:51:00;;;;;;;13.30;4.13;;;10.80;99.90;;;;;;5004087;28;20592;-79
2022/02/12 10:53:26;;;;;;;8.63;3.13;;;11.20;99.90;;;;;;5001634;28;20647;-80
2022/02/12 10:56:03;;;;;;;10.33;3.10;;;11.50;99.90;;;;;;4953090;28;20613;-79
2022/02/12 10:58:30;;;;;;;8.20;3.45;;;11.70;99.90;;;;;;5003324;28;21167;-79
2022/02/12 11:00:56;;;;;;;6.27;2.93;;;11.80;99.90;;;;;;4987367;28;20260;-78
2022/02/12 11:03:22;;;;;;;10.50;2.63;;;11.80;99.90;;;;;;4993552;28;20585;-79
2022/02/12 11:05:53;;;;;;;6.67;2.83;;;11.70;99.90;;;;;;5000264;28;20589;-79
2022/02/12 11:08:25;;;;;;;9.07;3.53;;;11.60;99.60;;;;;;4983181;28;20248;-79
2022/02/12 11:10:51;;;;;;;12.20;2.80;;;11.50;98.30;;;;;;5004137;28;20582;-79
2022/02/12 11:13:20;;;;;;;10.03;4.60;;;11.50;98.90;;;;;;4983829;28;20577;-78
2022/02/12 11:15:48;;;;;;;10.13;2.67;;;11.40;98.00;;;;;;4981858;28;20592;-79
2022/02/12 11:18:19;;;;;;;6.70;2.77;;;11.40;99.80;;;;;;4988419;28;20589;-79
2022/02/12 11:20:46;;;;;;;6.87;2.80;;;11.50;99.90;;;;;;5000526;28;20629;-79
2022/02/12 11:23:21;;;;;;;12.10;2.92;;;11.50;99.90;;;;;;5007377;28;20660;-79
2022/02/12 11:25:48;;;;;;;5.63;3.10;;;11.30;96.70;;;;;;5001967;28;20178;-78
2022/02/12 11:28:15;;;;;;;12.45;3.10;;;11.10;99.00;;;;;;5003431;28;20201;-78
2022/02/12 11:30:43;;;;;;;4.72;2.90;;;10.80;95.50;;;;;;4983046;28;20277;-78
2022/02/12 11:33:19;;;;;;;6.93;2.63;;;10.50;96.10;;;;;;4985397;28;20229;-79
2022/02/12 11:36:22;;;;;;;8.80;2.72;;;10.30;96.50;;;;;;5004046;28;20182;-79
2022/02/12 11:38:49;;;;;;;9.30;2.72;;;10.00;96.40;;;;;;5000843;28;20193;-79
2022/02/12 11:41:25;;;;;;;8.02;2.50;;;9.80;97.10;;;;;;5005259;28;20198;-79
2022/02/12 11:43:51;;;;;;;6.00;2.47;;;9.70;98.00;;;;;;5002649;28;20646;-78
2022/02/12 11:46:42;;;;;;;12.57;3.85;;;9.70;99.00;;;;;;4999876;28;20215;-78
2022/02/12 11:49:26;;;;;;;8.93;3.40;;;9.60;97.50;;;;;;5002246;28;20257;-78
2022/02/12 11:51:53;;;;;;;8.75;2.97;;;9.60;96.00;;;;;;4999016;28;20186;-78
2022/02/12 11:54:46;;;;;;;8.80;2.80;;;9.60;98.70;;;;;;5007313;28;20748;-78
2022/02/12 11:57:17;;;;;;;7.43;2.60;;;9.60;99.20;;;;;;5006884;28;20190;-78
2022/02/12 11:59:44;;;;;;;6.90;2.92;;;9.50;98.50;;;;;;5007037;28;20197;-78
2022/02/12 12:02:40;;;;;;;7.43;3.15;;;9.30;97.80;;;;;;4998720;28;20190;-77
2022/02/12 12:05:21;;;;;;;5.63;3.10;;;9.20;97.60;;;;;;4986507;28;20266;-78
2022/02/12 12:08:06;;;;;;;6.38;2.90;;;9.20;98.30;;;;;;5005076;28;20277;-78
2022/02/12 12:10:34;;;;;;;7.82;3.22;;;9.20;96.70;;;;;;4989052;28;20260;-78
2022/02/12 12:13:10;;;;;;;5.60;2.92;;;9.10;97.70;;;;;;5003353;28;20806;-78
2022/02/12 12:15:36;;;;;;;7.50;2.40;;;9.10;97.90;;;;;;5007120;28;20297;-78
2022/02/12 12:18:05;;;;;;;14.02;3.45;;;9.00;98.40;;;;;;5006975;28;20296;-78
2022/02/12 12:20:40;;;;;;;7.15;2.90;;;9.00;98.00;;;;;;5004213;28;20260;-78
2022/02/12 12:23:09;;;;;;;6.40;2.75;;;9.10;98.30;;;;;;4989315;28;20767;-78
2022/02/12 12:25:52;;;;;;;11.65;3.50;;;9.10;98.80;;;;;;5006712;28;20171;-78
2022/02/12 12:28:26;;;;;;;7.85;3.50;;;9.20;98.70;;;;;;5005275;28;20183;-78
2022/02/12 12:30:52;;;;;;;5.78;2.13;;;9.20;98.50;;;;;;5003610;28;20190;-78
2022/02/12 12:33:17;;;;;;;10.57;4.10;;;9.30;99.30;;;;;;5013260;28;20181;-79
2022/02/12 12:35:55;;;;;;;8.00;2.37;;;9.20;97.10;;;;;;5026901;28;21128;-79
2022/02/12 12:38:38;;;;;;;12.07;3.53;;;9.20;97.20;;;;;;5013381;28;20252;-78
2022/02/12 12:41:34;;;;;;;8.00;3.45;;;9.20;97.60;;;;;;5021441;28;20299;-78
2022/02/12 12:44:12;;;;;;;10.05;3.55;;;9.10;95.90;;;;;;5005859;28;20185;-78
2022/02/12 12:46:41;;;;;;;7.97;3.67;;;9.00;95.70;;;;;;5010838;28;20215;-79
2022/02/12 12:49:08;;;;;;;10.30;2.97;;;8.90;96.90;;;;;;5002738;28;20210;-79
2022/02/12 12:51:35;;;;;;;6.60;2.35;;;8.90;97.10;;;;;;5005646;28;20685;-78
2022/02/12 12:54:03;;;;;;;7.20;2.85;;;8.80;97.50;;;;;;5002828;28;20179;-79
2022/02/12 12:56:29;;;;;;;6.95;2.95;;;8.80;98.10;;;;;;5005783;28;20206;-78
2022/02/12 12:59:10;;;;;;;5.13;2.15;;;8.70;98.30;;;;;;4996121;28;20170;-78
2022/02/12 13:01:53;;;;;;;8.95;4.22;;;8.70;98.10;;;;;;5007970;28;20257;-79
2022/02/12 13:04:19;;;;;;;10.05;3.60;;;8.60;97.90;;;;;;5001012;28;20175;-79
2022/02/12 13:06:56;;;;;;;9.20;3.77;;;8.60;98.20;;;;;;5002733;28;20202;-79